createdAt,value
2017-08-07T00:00:15.807Z,95
2017-08-07T00:01:18.562Z,95
2017-08-07T00:02:21.320Z,95
2017-08-07T00:03:24.747Z,95
2017-08-07T00:04:27.504Z,94
2017-08-07T00:05:30.283Z,94
2017-08-07T00:06:33.034Z,94
2017-08-07T00:07:35.793Z,94
2017-08-07T00:08:38.218Z,94
2017-08-07T00:09:41.330Z,94
2017-08-07T00:10:44.079Z,94
2017-08-07T00:11:46.833Z,95
2017-08-07T00:12:49.254Z,94
2017-08-07T00:13:51.671Z,94
2017-08-07T00:14:54.415Z,94
2017-08-07T00:15:57.173Z,94
2017-08-07T00:16:59.576Z,94
2017-08-07T00:18:02.326Z,94
2017-08-07T00:19:05.095Z,94
2017-08-07T00:20:07.504Z,94
2017-08-07T00:21:09.927Z,94
2017-08-07T00:22:12.678Z,94
2017-08-07T00:23:15.093Z,94
2017-08-07T00:24:17.851Z,94
2017-08-07T00:25:20.603Z,94
2017-08-07T00:26:23.013Z,94
2017-08-07T00:27:25.442Z,94
2017-08-07T00:28:27.861Z,94
2017-08-07T00:29:30.270Z,94
2017-08-07T00:30:33.027Z,94
2017-08-07T00:31:35.457Z,94
2017-08-07T00:32:38.220Z,94
2017-08-07T00:33:40.974Z,94
2017-08-07T00:34:43.393Z,93
2017-08-07T00:35:46.147Z,93
2017-08-07T00:36:48.583Z,93
2017-08-07T00:37:51.001Z,94
2017-08-07T00:38:54.103Z,94
2017-08-07T00:39:56.851Z,94
2017-08-07T00:40:59.262Z,94
2017-08-07T00:42:01.692Z,94
2017-08-07T00:43:04.455Z,94
2017-08-07T00:44:06.865Z,94
2017-08-07T00:45:09.289Z,94
2017-08-07T00:46:11.708Z,94
2017-08-07T00:47:14.130Z,94
2017-08-07T00:48:16.884Z,94
2017-08-07T00:49:19.307Z,94
2017-08-07T00:50:22.060Z,94
2017-08-07T00:51:24.478Z,94
2017-08-07T00:52:26.908Z,94
2017-08-07T00:53:29.323Z,94
2017-08-07T00:54:32.069Z,94
2017-08-07T00:55:34.843Z,94
2017-08-07T00:56:37.590Z,94
2017-08-07T00:57:40.364Z,94
2017-08-07T00:58:42.786Z,94
2017-08-07T00:59:45.894Z,94
2017-08-07T01:00:48.311Z,94
2017-08-07T01:01:50.733Z,94
2017-08-07T01:02:53.495Z,94
2017-08-07T01:03:55.901Z,94
2017-08-07T01:04:58.320Z,94
2017-08-07T01:06:00.739Z,94
2017-08-07T01:07:03.835Z,94
2017-08-07T01:08:06.574Z,93
2017-08-07T01:09:08.997Z,93
2017-08-07T01:10:11.420Z,93
2017-08-07T01:11:14.178Z,93
2017-08-07T01:12:16.598Z,93
2017-08-07T01:13:19.012Z,93
2017-08-07T01:14:21.433Z,93
2017-08-07T01:15:23.851Z,93
2017-08-07T01:16:26.262Z,93
2017-08-07T01:17:29.043Z,93
2017-08-07T01:18:31.810Z,93
2017-08-07T01:19:34.218Z,93
2017-08-07T01:20:36.970Z,93
2017-08-07T01:21:39.387Z,93
2017-08-07T01:22:42.139Z,93
2017-08-07T01:23:44.568Z,93
2017-08-07T01:24:46.984Z,93
2017-08-07T01:25:49.394Z,93
2017-08-07T01:26:51.809Z,93
2017-08-07T01:27:54.221Z,93
2017-08-07T01:28:56.633Z,93
2017-08-07T01:29:59.070Z,93
2017-08-07T01:31:01.489Z,93
2017-08-07T01:32:04.256Z,93
2017-08-07T01:33:06.686Z,93
2017-08-07T01:34:09.101Z,93
2017-08-07T01:35:11.510Z,93
2017-08-07T01:36:13.923Z,93
2017-08-07T01:37:16.346Z,93
2017-08-07T01:38:19.104Z,93
2017-08-07T01:39:21.860Z,93
2017-08-07T01:40:24.640Z,93
2017-08-07T01:41:27.054Z,93
2017-08-07T01:42:29.511Z,93
2017-08-07T01:43:31.934Z,93
2017-08-07T01:44:34.335Z,93
2017-08-07T01:45:37.083Z,93
2017-08-07T01:46:39.851Z,93
2017-08-07T01:47:42.284Z,93
2017-08-07T01:48:44.698Z,93
2017-08-07T01:49:47.456Z,93
2017-08-07T01:50:49.872Z,93
2017-08-07T01:51:52.301Z,93
2017-08-07T01:52:54.715Z,93
2017-08-07T01:53:57.806Z,93
2017-08-07T01:55:00.221Z,93
2017-08-07T01:56:02.634Z,93
2017-08-07T01:57:05.057Z,93
2017-08-07T01:58:07.475Z,94
2017-08-07T01:59:10.242Z,94
2017-08-07T02:00:13.004Z,94
2017-08-07T02:01:15.449Z,94
2017-08-07T02:02:17.869Z,94
2017-08-07T02:03:20.281Z,94
2017-08-07T02:04:23.375Z,94
2017-08-07T02:05:25.784Z,94
2017-08-07T02:06:28.546Z,94
2017-08-07T02:07:30.969Z,94
2017-08-07T02:08:34.417Z,94
2017-08-07T02:09:36.832Z,94
2017-08-07T02:10:39.249Z,94
2017-08-07T02:11:41.672Z,94
2017-08-07T02:12:44.084Z,94
2017-08-07T02:13:46.842Z,94
2017-08-07T02:14:49.586Z,94
2017-08-07T02:15:52.005Z,94
2017-08-07T02:16:54.418Z,95
2017-08-07T02:17:56.865Z,95
2017-08-07T02:18:59.276Z,95
2017-08-07T02:20:01.699Z,95
2017-08-07T02:21:04.461Z,95
2017-08-07T02:22:07.213Z,95
2017-08-07T02:23:09.974Z,95
2017-08-07T02:24:12.404Z,95
2017-08-07T02:25:15.480Z,95
2017-08-07T02:26:18.583Z,95
2017-08-07T02:27:20.990Z,95
2017-08-07T02:28:23.406Z,95
2017-08-07T02:29:26.152Z,95
2017-08-07T02:30:28.581Z,95
2017-08-07T02:31:31.335Z,96
2017-08-07T02:32:33.752Z,96
2017-08-07T02:33:36.185Z,96
2017-08-07T02:34:38.600Z,96
2017-08-07T02:35:41.352Z,96
2017-08-07T02:36:44.454Z,96
2017-08-07T02:37:47.201Z,96
2017-08-07T02:38:49.966Z,96
2017-08-07T02:39:52.721Z,96
2017-08-07T02:40:55.144Z,96
2017-08-07T02:41:58.235Z,96
2017-08-07T02:43:00.660Z,96
2017-08-07T02:44:03.422Z,96
2017-08-07T02:45:06.849Z,96
2017-08-07T02:46:09.260Z,96
2017-08-07T02:47:11.674Z,96
2017-08-07T02:48:14.432Z,96
2017-08-07T02:49:17.553Z,96
2017-08-07T02:50:19.974Z,96
2017-08-07T02:51:22.718Z,96
2017-08-07T02:52:25.487Z,96
2017-08-07T02:53:28.584Z,96
2017-08-07T02:54:31.338Z,96
2017-08-07T02:55:33.772Z,96
2017-08-07T02:56:36.182Z,96
2017-08-07T02:57:38.594Z,96
2017-08-07T02:58:41.017Z,96
2017-08-07T02:59:43.432Z,96
2017-08-07T03:00:45.847Z,96
2017-08-07T03:01:48.605Z,95
2017-08-07T03:02:51.386Z,95
2017-08-07T03:03:53.807Z,95
2017-08-07T03:04:56.559Z,95
2017-08-07T03:05:58.973Z,95
2017-08-07T03:07:02.089Z,95
2017-08-07T03:08:04.490Z,95
2017-08-07T03:09:07.593Z,95
2017-08-07T03:10:10.039Z,95
2017-08-07T03:11:12.798Z,96
2017-08-07T03:12:15.892Z,96
2017-08-07T03:13:18.301Z,96
2017-08-07T03:14:21.062Z,96
2017-08-07T03:15:23.821Z,96
2017-08-07T03:16:26.580Z,96
2017-08-07T03:17:28.996Z,96
2017-08-07T03:18:31.754Z,96
2017-08-07T03:19:34.167Z,96
2017-08-07T03:20:36.920Z,96
2017-08-07T03:21:40.049Z,96
2017-08-07T03:22:42.456Z,96
2017-08-07T03:23:44.870Z,96
2017-08-07T03:24:47.314Z,96
2017-08-07T03:25:49.722Z,96
2017-08-07T03:26:52.473Z,96
2017-08-07T03:27:55.223Z,96
2017-08-07T03:28:57.981Z,96
2017-08-07T03:30:00.764Z,96
2017-08-07T03:31:03.196Z,96
2017-08-07T03:32:05.607Z,96
2017-08-07T03:33:08.020Z,95
2017-08-07T03:34:10.434Z,95
2017-08-07T03:35:12.843Z,95
2017-08-07T03:36:15.591Z,95
2017-08-07T03:37:18.370Z,95
2017-08-07T03:38:21.461Z,95
2017-08-07T03:39:23.865Z,95
2017-08-07T03:40:26.296Z,95
2017-08-07T03:41:28.720Z,95
2017-08-07T03:42:31.513Z,95
2017-08-07T03:43:34.271Z,95
2017-08-07T03:44:36.685Z,95
2017-08-07T03:45:39.445Z,95
2017-08-07T03:46:41.869Z,94
2017-08-07T03:47:44.288Z,94
2017-08-07T03:48:46.702Z,94
2017-08-07T03:49:49.114Z,94
2017-08-07T03:50:51.533Z,94
2017-08-07T03:51:54.619Z,94
2017-08-07T03:52:57.039Z,94
2017-08-07T03:53:59.448Z,93
2017-08-07T03:55:02.207Z,93
2017-08-07T03:56:04.943Z,93
2017-08-07T03:57:07.360Z,93
2017-08-07T03:58:10.152Z,93
2017-08-07T03:59:13.229Z,93
2017-08-07T04:00:15.997Z,93
2017-08-07T04:01:18.417Z,92
2017-08-07T04:02:20.823Z,92
2017-08-07T04:03:23.233Z,92
2017-08-07T04:04:25.654Z,92
2017-08-07T04:05:28.769Z,92
2017-08-07T04:06:31.174Z,92
2017-08-07T04:07:33.980Z,92
2017-08-07T04:08:36.489Z,92
2017-08-07T04:09:39.376Z,91
2017-08-07T04:10:41.912Z,91
2017-08-07T04:11:45.122Z,91
2017-08-07T04:12:47.647Z,91
2017-08-07T04:13:50.834Z,90
2017-08-07T04:14:53.335Z,90
2017-08-07T04:15:56.273Z,90
2017-08-07T04:16:58.785Z,90
2017-08-07T04:18:01.643Z,90
2017-08-07T04:19:04.861Z,90
2017-08-07T04:20:07.367Z,90
2017-08-07T04:21:09.879Z,90
2017-08-07T04:22:12.771Z,90
2017-08-07T04:23:15.624Z,90
2017-08-07T04:24:18.485Z,90
2017-08-07T04:25:21.684Z,90
2017-08-07T04:26:24.562Z,90
2017-08-07T04:27:27.439Z,90
2017-08-07T04:28:29.941Z,90
2017-08-07T04:29:32.804Z,90
2017-08-07T04:30:35.391Z,90
2017-08-07T04:31:37.916Z,90
2017-08-07T04:32:40.796Z,90
2017-08-07T04:33:43.655Z,91
2017-08-07T04:34:46.188Z,91
2017-08-07T04:35:48.694Z,91
2017-08-07T04:36:51.554Z,91
2017-08-07T04:37:54.073Z,91
2017-08-07T04:38:56.582Z,91
2017-08-07T04:39:59.101Z,91
2017-08-07T04:41:01.609Z,91
2017-08-07T04:42:04.481Z,91
2017-08-07T04:43:08.042Z,91
2017-08-07T04:44:11.575Z,91
2017-08-07T04:45:14.763Z,91
2017-08-07T04:46:17.272Z,91
2017-08-07T04:47:20.479Z,91
2017-08-07T04:48:23.329Z,90
2017-08-07T04:49:25.836Z,90
2017-08-07T04:50:28.342Z,90
2017-08-07T04:51:31.181Z,90
2017-08-07T04:52:33.711Z,90
2017-08-07T04:53:36.229Z,90
2017-08-07T04:54:39.079Z,90
2017-08-07T04:55:41.938Z,89
2017-08-07T04:56:44.454Z,89
2017-08-07T04:57:46.984Z,89
2017-08-07T04:58:49.834Z,89
2017-08-07T04:59:52.374Z,89
2017-08-07T05:00:55.565Z,89
2017-08-07T05:01:58.091Z,89
2017-08-07T05:03:00.942Z,88
2017-08-07T05:04:03.463Z,88
2017-08-07T05:05:06.017Z,88
2017-08-07T05:06:08.874Z,88
2017-08-07T05:07:12.054Z,88
2017-08-07T05:08:14.572Z,87
2017-08-07T05:09:17.048Z,87
2017-08-07T05:10:19.582Z,87
2017-08-07T05:11:22.098Z,87
2017-08-07T05:12:24.582Z,87
2017-08-07T05:13:27.111Z,86
2017-08-07T05:14:29.638Z,86
2017-08-07T05:15:32.153Z,86
2017-08-07T05:16:34.670Z,86
2017-08-07T05:17:37.871Z,86
2017-08-07T05:18:40.717Z,86
2017-08-07T05:19:43.239Z,86
2017-08-07T05:20:46.080Z,86
2017-08-07T05:21:48.592Z,85
2017-08-07T05:22:51.447Z,85
2017-08-07T05:23:53.956Z,85
2017-08-07T05:24:57.140Z,85
2017-08-07T05:25:59.988Z,85
2017-08-07T05:27:02.492Z,85
2017-08-07T05:28:05.685Z,85
2017-08-07T05:29:08.193Z,85
2017-08-07T05:30:11.038Z,85
2017-08-07T05:31:13.526Z,84
2017-08-07T05:32:16.046Z,84
2017-08-07T05:33:18.895Z,84
2017-08-07T05:34:21.409Z,84
2017-08-07T05:35:23.910Z,84
2017-08-07T05:36:26.434Z,84
2017-08-07T05:37:29.273Z,84
2017-08-07T05:38:31.779Z,84
2017-08-07T05:39:34.299Z,84
2017-08-07T05:40:36.801Z,84
2017-08-07T05:41:39.300Z,83
2017-08-07T05:42:42.149Z,83
2017-08-07T05:43:44.643Z,84
2017-08-07T05:44:47.161Z,83
2017-08-07T05:45:49.689Z,83
2017-08-07T05:46:52.197Z,83
2017-08-07T05:47:55.430Z,83
2017-08-07T05:48:58.268Z,83
2017-08-07T05:50:01.122Z,82
2017-08-07T05:51:04.313Z,82
2017-08-07T05:52:06.827Z,82
2017-08-07T05:53:09.331Z,82
2017-08-07T05:54:11.847Z,82
2017-08-07T05:55:14.329Z,82
2017-08-07T05:56:16.869Z,82
2017-08-07T05:57:20.054Z,82
2017-08-07T05:58:22.563Z,81
2017-08-07T05:59:25.415Z,81
2017-08-07T06:00:28.986Z,82
2017-08-07T06:01:31.507Z,81
2017-08-07T06:02:33.993Z,81
2017-08-07T06:03:36.523Z,81
2017-08-07T06:04:39.051Z,81
2017-08-07T06:05:41.895Z,81
2017-08-07T06:06:44.406Z,80
2017-08-07T06:07:46.934Z,80
2017-08-07T06:08:49.772Z,81
2017-08-07T06:09:52.296Z,80
2017-08-07T06:10:54.828Z,81
2017-08-07T06:11:57.337Z,80
2017-08-07T06:13:00.206Z,81
2017-08-07T06:14:03.086Z,81
2017-08-07T06:15:06.607Z,80
2017-08-07T06:16:09.130Z,80
2017-08-07T06:17:11.662Z,80
2017-08-07T06:18:14.524Z,80
2017-08-07T06:19:17.740Z,80
2017-08-07T06:20:20.589Z,79
2017-08-07T06:21:23.774Z,79
2017-08-07T06:22:26.628Z,79
2017-08-07T06:23:29.169Z,79
2017-08-07T06:24:32.017Z,79
2017-08-07T06:25:34.559Z,79
2017-08-07T06:26:37.073Z,79
2017-08-07T06:27:39.922Z,78
2017-08-07T06:28:42.791Z,79
2017-08-07T06:29:46.325Z,78
2017-08-07T06:30:48.823Z,78
2017-08-07T06:31:51.668Z,78
2017-08-07T06:32:54.515Z,78
2017-08-07T06:33:57.058Z,78
2017-08-07T06:34:59.568Z,78
2017-08-07T06:36:02.068Z,78
2017-08-07T06:37:04.586Z,77
2017-08-07T06:38:07.093Z,77
2017-08-07T06:39:09.607Z,78
2017-08-07T06:40:12.152Z,77
2017-08-07T06:41:14.650Z,77
2017-08-07T06:42:17.505Z,77
2017-08-07T06:43:20.393Z,77
2017-08-07T06:44:22.886Z,77
2017-08-07T06:45:25.393Z,76
2017-08-07T06:46:27.901Z,76
2017-08-07T06:47:30.743Z,76
2017-08-07T06:48:33.248Z,76
2017-08-07T06:49:35.746Z,76
2017-08-07T06:50:38.253Z,76
2017-08-07T06:51:41.443Z,76
2017-08-07T06:52:44.305Z,76
2017-08-07T06:53:47.172Z,76
2017-08-07T06:54:49.693Z,75
2017-08-07T06:55:52.910Z,75
2017-08-07T06:56:55.424Z,75
2017-08-07T06:57:57.941Z,75
2017-08-07T06:59:01.493Z,75
2017-08-07T07:00:04.351Z,75
2017-08-07T07:01:06.862Z,75
2017-08-07T07:02:09.385Z,74
2017-08-07T07:03:11.903Z,75
2017-08-07T07:04:14.402Z,75
2017-08-07T07:05:16.921Z,75
2017-08-07T07:06:19.451Z,75
2017-08-07T07:07:22.315Z,74
2017-08-07T07:08:24.838Z,73
2017-08-07T07:09:27.677Z,73
2017-08-07T07:10:30.196Z,74
2017-08-07T07:11:32.702Z,73
2017-08-07T07:12:35.563Z,73
2017-08-07T07:13:38.115Z,72
2017-08-07T07:14:40.965Z,72
2017-08-07T07:15:43.472Z,72
2017-08-07T07:16:46.687Z,71
2017-08-07T07:17:49.205Z,70
2017-08-07T07:18:51.698Z,71
2017-08-07T07:19:54.564Z,71
2017-08-07T07:20:57.440Z,70
2017-08-07T07:21:59.968Z,71
2017-08-07T07:23:02.833Z,71
2017-08-07T07:24:05.696Z,71
2017-08-07T07:25:08.547Z,71
2017-08-07T07:26:11.071Z,72
2017-08-07T07:27:13.920Z,71
2017-08-07T07:28:16.466Z,71
2017-08-07T07:29:19.309Z,70
2017-08-07T07:30:21.830Z,69
2017-08-07T07:31:24.998Z,69
2017-08-07T07:32:27.889Z,69
2017-08-07T07:33:30.414Z,69
2017-08-07T07:34:33.291Z,69
2017-08-07T07:35:35.804Z,68
2017-08-07T07:36:38.318Z,68
2017-08-07T07:37:41.181Z,68
2017-08-07T07:38:43.711Z,67
2017-08-07T07:39:46.226Z,68
2017-08-07T07:40:48.729Z,68
2017-08-07T07:41:51.235Z,67
2017-08-07T07:42:53.764Z,68
2017-08-07T07:43:56.630Z,68
2017-08-07T07:44:59.828Z,68
2017-08-07T07:46:02.689Z,68
2017-08-07T07:47:05.201Z,67
2017-08-07T07:48:08.056Z,67
2017-08-07T07:49:11.245Z,67
2017-08-07T07:50:14.097Z,67
2017-08-07T07:51:16.645Z,67
2017-08-07T07:52:19.187Z,69
2017-08-07T07:53:22.059Z,66
2017-08-07T07:54:24.585Z,67
2017-08-07T07:55:27.801Z,67
2017-08-07T07:56:30.314Z,66
2017-08-07T07:57:32.840Z,66
2017-08-07T07:58:35.710Z,66
2017-08-07T07:59:38.876Z,66
2017-08-07T08:00:41.763Z,66
2017-08-07T08:01:44.293Z,67
2017-08-07T08:02:46.801Z,65
2017-08-07T08:03:49.316Z,65
2017-08-07T08:04:52.176Z,65
2017-08-07T08:05:55.396Z,64
2017-08-07T08:06:58.252Z,65
2017-08-07T08:08:00.775Z,64
2017-08-07T08:09:03.301Z,64
2017-08-07T08:10:06.506Z,65
2017-08-07T08:11:09.350Z,64
2017-08-07T08:12:12.206Z,65
2017-08-07T08:13:14.715Z,65
2017-08-07T08:14:17.267Z,66
2017-08-07T08:15:20.128Z,65
2017-08-07T08:16:22.640Z,65
2017-08-07T08:17:25.164Z,64
2017-08-07T08:18:27.684Z,61
2017-08-07T08:19:30.557Z,62
2017-08-07T08:20:33.082Z,63
2017-08-07T08:21:36.282Z,60
2017-08-07T08:22:39.130Z,60
2017-08-07T08:23:41.658Z,61
2017-08-07T08:24:44.154Z,61
2017-08-07T08:25:47.704Z,59
2017-08-07T08:26:50.578Z,59
2017-08-07T08:27:53.433Z,56
2017-08-07T08:28:56.300Z,58
2017-08-07T08:29:59.171Z,57
2017-08-07T08:31:01.697Z,57
2017-08-07T08:32:04.227Z,57
2017-08-07T08:33:06.748Z,56
2017-08-07T08:34:09.267Z,57
2017-08-07T08:35:12.110Z,57
2017-08-07T08:36:15.311Z,60
2017-08-07T08:37:18.186Z,63
2017-08-07T08:38:20.691Z,61
2017-08-07T08:39:23.551Z,63
2017-08-07T08:40:26.068Z,63
2017-08-07T08:41:28.583Z,57
2017-08-07T08:42:31.126Z,55
2017-08-07T08:43:33.647Z,54
2017-08-07T08:44:36.168Z,54
2017-08-07T08:45:39.030Z,53
2017-08-07T08:46:41.909Z,54
2017-08-07T08:47:44.774Z,53
2017-08-07T08:48:47.301Z,53
2017-08-07T08:49:50.140Z,54
2017-08-07T08:50:53.012Z,54
2017-08-07T08:51:55.524Z,54
2017-08-07T08:52:58.398Z,53
2017-08-07T08:54:00.927Z,52
2017-08-07T08:55:03.794Z,52
2017-08-07T08:56:06.662Z,53
2017-08-07T08:57:09.527Z,53
2017-08-07T08:58:12.048Z,52
2017-08-07T08:59:14.902Z,52
2017-08-07T09:00:18.105Z,53
2017-08-07T09:01:20.976Z,53
2017-08-07T09:02:24.165Z,52
2017-08-07T09:03:26.691Z,54
2017-08-07T09:04:29.565Z,51
2017-08-07T09:05:32.427Z,53
2017-08-07T09:06:34.958Z,51
2017-08-07T09:07:38.190Z,52
2017-08-07T09:08:40.718Z,52
2017-08-07T09:09:43.958Z,50
2017-08-07T09:10:46.475Z,49
2017-08-07T09:11:49.698Z,50
2017-08-07T09:12:52.215Z,50
2017-08-07T09:13:54.745Z,50
2017-08-07T09:14:57.607Z,51
2017-08-07T09:16:00.120Z,53
2017-08-07T09:17:04.338Z,51
2017-08-07T09:18:07.562Z,48
2017-08-07T09:19:10.080Z,48
2017-08-07T09:20:12.946Z,47
2017-08-07T09:21:15.450Z,48
2017-08-07T09:22:17.966Z,50
2017-08-07T09:23:20.814Z,49
2017-08-07T09:24:23.356Z,50
2017-08-07T09:25:26.263Z,50
2017-08-07T09:26:28.786Z,51
2017-08-07T09:27:31.319Z,47
2017-08-07T09:28:33.853Z,47
2017-08-07T09:29:36.360Z,47
2017-08-07T09:30:38.861Z,47
2017-08-07T09:31:42.067Z,47
2017-08-07T09:32:44.598Z,48
2017-08-07T09:33:47.468Z,48
2017-08-07T09:34:49.998Z,45
2017-08-07T09:35:52.864Z,47
2017-08-07T09:36:55.384Z,48
2017-08-07T09:37:57.906Z,48
2017-08-07T09:39:00.774Z,47
2017-08-07T09:40:04.311Z,48
2017-08-07T09:41:07.174Z,48
2017-08-07T09:42:09.715Z,48
2017-08-07T09:43:12.245Z,47
2017-08-07T09:44:14.770Z,49
2017-08-07T09:45:17.993Z,49
2017-08-07T09:46:20.852Z,51
2017-08-07T09:47:23.392Z,52
2017-08-07T09:48:25.910Z,53
2017-08-07T09:49:28.434Z,51
2017-08-07T09:50:31.299Z,56
2017-08-07T09:51:34.163Z,51
2017-08-07T09:52:37.057Z,50
2017-08-07T09:53:39.592Z,49
2017-08-07T09:54:42.433Z,52
2017-08-07T09:55:45.292Z,50
2017-08-07T09:56:48.178Z,50
2017-08-07T09:57:51.044Z,51
2017-08-07T09:58:54.248Z,51
2017-08-07T09:59:57.130Z,49
2017-08-07T10:00:59.988Z,50
2017-08-07T10:02:03.190Z,50
2017-08-07T10:03:05.712Z,49
2017-08-07T10:04:08.570Z,47
2017-08-07T10:05:11.104Z,47
2017-08-07T10:06:13.623Z,47
2017-08-07T10:07:16.158Z,47
2017-08-07T10:08:18.665Z,46
2017-08-07T10:09:21.179Z,46
2017-08-07T10:10:24.052Z,44
2017-08-07T10:11:26.939Z,43
2017-08-07T10:12:29.452Z,43
2017-08-07T10:13:31.992Z,43
2017-08-07T10:14:34.847Z,44
2017-08-07T10:15:38.043Z,44
2017-08-07T10:16:41.265Z,44
2017-08-07T10:17:43.800Z,45
2017-08-07T10:18:46.319Z,43
2017-08-07T10:19:49.207Z,43
2017-08-07T10:20:52.389Z,45
2017-08-07T10:21:54.920Z,44
2017-08-07T10:22:57.767Z,45
2017-08-07T10:24:00.283Z,46
2017-08-07T10:25:02.808Z,47
2017-08-07T10:26:06.006Z,45
2017-08-07T10:27:08.864Z,46
2017-08-07T10:28:11.398Z,44
2017-08-07T10:29:13.932Z,46
2017-08-07T10:30:16.789Z,46
2017-08-07T10:31:19.663Z,45
2017-08-07T10:32:22.171Z,44
2017-08-07T10:33:24.708Z,43
2017-08-07T10:34:27.584Z,42
2017-08-07T10:35:30.107Z,42
2017-08-07T10:36:32.971Z,43
2017-08-07T10:37:35.495Z,41
2017-08-07T10:38:38.353Z,42
2017-08-07T10:39:40.889Z,42
2017-08-07T10:40:43.425Z,40
2017-08-07T10:41:46.291Z,40
2017-08-07T10:42:48.827Z,40
2017-08-07T10:43:51.682Z,41
2017-08-07T10:44:54.216Z,40
2017-08-07T10:45:56.743Z,38
2017-08-07T10:46:59.249Z,38
2017-08-07T10:48:01.783Z,39
2017-08-07T10:49:04.646Z,41
2017-08-07T10:50:07.187Z,40
2017-08-07T10:51:09.726Z,38
2017-08-07T10:52:12.587Z,39
2017-08-07T10:53:15.105Z,39
2017-08-07T10:54:17.983Z,39
2017-08-07T10:55:20.519Z,39
2017-08-07T10:56:23.031Z,40
2017-08-07T10:57:25.588Z,40
2017-08-07T10:58:28.440Z,40
2017-08-07T10:59:31.643Z,39
2017-08-07T11:00:34.524Z,41
2017-08-07T11:01:37.385Z,40
2017-08-07T11:02:39.929Z,38
2017-08-07T11:03:42.439Z,40
2017-08-07T11:04:44.954Z,38
2017-08-07T11:05:47.490Z,41
2017-08-07T11:06:50.007Z,43
2017-08-07T11:07:52.532Z,44
2017-08-07T11:08:55.396Z,44
2017-08-07T11:09:58.603Z,40
2017-08-07T11:11:01.842Z,40
2017-08-07T11:12:04.706Z,39
2017-08-07T11:13:07.568Z,39
2017-08-07T11:14:10.102Z,44
2017-08-07T11:15:12.637Z,42
2017-08-07T11:16:15.496Z,41
2017-08-07T11:17:18.030Z,41
2017-08-07T11:18:20.533Z,41
2017-08-07T11:19:23.433Z,35
2017-08-07T11:20:26.299Z,36
2017-08-07T11:21:29.491Z,37
2017-08-07T11:22:32.000Z,37
2017-08-07T11:23:34.527Z,38
2017-08-07T11:24:37.052Z,40
2017-08-07T11:25:39.589Z,35
2017-08-07T11:26:42.459Z,37
2017-08-07T11:27:44.962Z,35
2017-08-07T11:28:47.487Z,37
2017-08-07T11:29:50.719Z,38
2017-08-07T11:30:53.237Z,41
2017-08-07T11:31:55.747Z,38
2017-08-07T11:32:58.288Z,35
2017-08-07T11:34:00.807Z,36
2017-08-07T11:35:03.678Z,38
2017-08-07T11:36:06.550Z,40
2017-08-07T11:37:09.063Z,36
2017-08-07T11:38:12.639Z,38
2017-08-07T11:39:15.534Z,38
2017-08-07T11:40:18.056Z,36
2017-08-07T11:41:21.273Z,36
2017-08-07T11:42:24.515Z,37
2017-08-07T11:43:27.385Z,34
2017-08-07T11:44:30.640Z,34
2017-08-07T11:45:33.169Z,35
2017-08-07T11:46:36.028Z,35
2017-08-07T11:47:38.562Z,35
2017-08-07T11:48:41.082Z,35
2017-08-07T11:49:43.606Z,35
2017-08-07T11:50:46.147Z,35
2017-08-07T11:51:49.356Z,37
2017-08-07T11:52:52.245Z,39
2017-08-07T11:53:54.791Z,35
2017-08-07T11:54:57.308Z,38
2017-08-07T11:56:00.208Z,37
2017-08-07T11:57:02.746Z,39
2017-08-07T11:58:05.276Z,37
2017-08-07T11:59:08.153Z,39
2017-08-07T12:00:10.677Z,37
2017-08-07T12:01:13.223Z,36
2017-08-07T12:02:15.757Z,37
2017-08-07T12:03:18.618Z,38
2017-08-07T12:04:21.495Z,38
2017-08-07T12:05:24.037Z,39
2017-08-07T12:06:26.898Z,40
2017-08-07T12:07:29.469Z,41
2017-08-07T12:08:31.989Z,41
2017-08-07T12:09:34.852Z,40
2017-08-07T12:10:37.398Z,43
2017-08-07T12:11:40.603Z,42
2017-08-07T12:12:43.811Z,41
2017-08-07T12:13:46.370Z,41
2017-08-07T12:14:49.237Z,40
2017-08-07T12:15:51.791Z,40
2017-08-07T12:16:54.324Z,42
2017-08-07T12:17:57.234Z,39
2017-08-07T12:18:59.766Z,37
2017-08-07T12:20:02.326Z,38
2017-08-07T12:21:05.547Z,37
2017-08-07T12:22:08.078Z,37
2017-08-07T12:23:10.660Z,37
2017-08-07T12:24:13.213Z,38
2017-08-07T12:25:16.081Z,41
2017-08-07T12:26:19.641Z,36
2017-08-07T12:27:22.565Z,38
2017-08-07T12:28:25.089Z,40
2017-08-07T12:29:27.978Z,37
2017-08-07T12:30:30.505Z,36
2017-08-07T12:31:33.028Z,36
2017-08-07T12:32:35.904Z,37
2017-08-07T12:33:38.415Z,36
2017-08-07T12:34:40.970Z,36
2017-08-07T12:35:44.031Z,37
2017-08-07T12:36:47.356Z,40
2017-08-07T12:37:49.890Z,40
2017-08-07T12:38:52.769Z,41
2017-08-07T12:39:55.637Z,43
2017-08-07T12:40:58.532Z,43
2017-08-07T12:42:01.048Z,39
2017-08-07T12:43:03.937Z,44
2017-08-07T12:44:06.450Z,43
2017-08-07T12:45:09.381Z,40
2017-08-07T12:46:12.274Z,39
2017-08-07T12:47:15.167Z,38
2017-08-07T12:48:17.712Z,37
2017-08-07T12:49:20.266Z,39
2017-08-07T12:50:23.169Z,38
2017-08-07T12:51:25.696Z,38
2017-08-07T12:52:28.218Z,40
2017-08-07T12:53:30.761Z,37
2017-08-07T12:54:33.623Z,38
2017-08-07T12:55:36.156Z,38
2017-08-07T12:56:38.698Z,41
2017-08-07T12:57:41.225Z,41
2017-08-07T12:58:43.786Z,44
2017-08-07T12:59:46.338Z,45
2017-08-07T13:00:48.859Z,36
2017-08-07T13:01:51.754Z,37
2017-08-07T13:02:54.966Z,36
2017-08-07T13:03:57.496Z,37
2017-08-07T13:05:00.717Z,36
2017-08-07T13:06:03.951Z,37
2017-08-07T13:07:06.474Z,37
2017-08-07T13:08:09.358Z,37
2017-08-07T13:09:11.916Z,37
2017-08-07T13:10:14.443Z,38
2017-08-07T13:11:16.975Z,40
2017-08-07T13:12:19.521Z,38
2017-08-07T13:13:22.051Z,39
2017-08-07T13:14:25.273Z,39
2017-08-07T13:15:28.150Z,38
2017-08-07T13:16:30.704Z,37
2017-08-07T13:17:33.934Z,37
2017-08-07T13:18:37.160Z,37
2017-08-07T13:19:39.679Z,37
2017-08-07T13:20:42.234Z,38
2017-08-07T13:21:44.773Z,36
2017-08-07T13:22:47.997Z,36
2017-08-07T13:23:50.546Z,37
2017-08-07T13:24:53.427Z,37
2017-08-07T13:25:55.959Z,35
2017-08-07T13:26:58.522Z,36
2017-08-07T13:28:01.381Z,35
2017-08-07T13:29:03.919Z,36
2017-08-07T13:30:06.902Z,38
2017-08-07T13:31:09.434Z,39
2017-08-07T13:32:11.972Z,37
2017-08-07T13:33:14.519Z,40
2017-08-07T13:34:17.394Z,37
2017-08-07T13:35:20.255Z,36
2017-08-07T13:36:22.781Z,37
2017-08-07T13:37:25.650Z,35
2017-08-07T13:38:28.192Z,37
2017-08-07T13:39:30.768Z,37
2017-08-07T13:40:33.310Z,38
2017-08-07T13:41:35.906Z,38
2017-08-07T13:42:39.151Z,37
2017-08-07T13:43:42.020Z,36
2017-08-07T13:44:44.574Z,36
2017-08-07T13:45:47.454Z,37
2017-08-07T13:46:50.347Z,38
2017-08-07T13:47:52.880Z,38
2017-08-07T13:48:55.418Z,36
2017-08-07T13:49:57.951Z,37
2017-08-07T13:51:01.572Z,37
2017-08-07T13:52:04.104Z,37
2017-08-07T13:53:06.926Z,38
2017-08-07T13:54:09.446Z,37
2017-08-07T13:55:12.672Z,36
2017-08-07T13:56:15.542Z,37
2017-08-07T13:57:18.052Z,37
2017-08-07T13:58:20.957Z,38
2017-08-07T13:59:23.849Z,38
2017-08-07T14:00:26.723Z,38
2017-08-07T14:01:29.255Z,38
2017-08-07T14:02:31.813Z,38
2017-08-07T14:03:34.682Z,40
2017-08-07T14:04:37.560Z,40
2017-08-07T14:05:40.749Z,40
2017-08-07T14:06:43.271Z,44
2017-08-07T14:07:45.833Z,39
2017-08-07T14:08:48.347Z,39
2017-08-07T14:09:51.232Z,37
2017-08-07T14:10:54.114Z,37
2017-08-07T14:11:56.649Z,36
2017-08-07T14:12:59.192Z,35
2017-08-07T14:14:02.054Z,35
2017-08-07T14:15:04.579Z,36
2017-08-07T14:16:07.113Z,35
2017-08-07T14:17:10.023Z,38
2017-08-07T14:18:12.889Z,36
2017-08-07T14:19:15.438Z,37
2017-08-07T14:20:18.364Z,38
2017-08-07T14:21:20.912Z,37
2017-08-07T14:22:23.450Z,39
2017-08-07T14:23:25.968Z,40
2017-08-07T14:24:28.503Z,42
2017-08-07T14:25:31.370Z,39
2017-08-07T14:26:34.254Z,41
2017-08-07T14:27:36.779Z,39
2017-08-07T14:28:39.316Z,42
2017-08-07T14:29:41.843Z,41
2017-08-07T14:30:44.384Z,41
2017-08-07T14:31:46.929Z,38
2017-08-07T14:32:49.795Z,42
2017-08-07T14:33:52.328Z,36
2017-08-07T14:34:54.876Z,39
2017-08-07T14:35:57.413Z,36
2017-08-07T14:37:00.638Z,36
2017-08-07T14:38:03.176Z,36
2017-08-07T14:39:06.719Z,38
2017-08-07T14:40:09.255Z,38
2017-08-07T14:41:12.497Z,35
2017-08-07T14:42:15.032Z,35
2017-08-07T14:43:18.251Z,35
2017-08-07T14:44:21.121Z,35
2017-08-07T14:45:23.655Z,36
2017-08-07T14:46:26.177Z,37
2017-08-07T14:47:28.718Z,38
2017-08-07T14:48:31.262Z,34
2017-08-07T14:49:33.814Z,34
2017-08-07T14:50:36.379Z,33
2017-08-07T14:51:39.249Z,34
2017-08-07T14:52:41.791Z,36
2017-08-07T14:53:44.322Z,35